createdAt,value
2022-12-22T00:01:28.898Z,93174.00
2022-12-22T00:03:19.115Z,93177.84
2022-12-22T00:05:09.306Z,93178.06
2022-12-22T00:06:59.548Z,93172.78
2022-12-22T00:08:49.755Z,93179.09
2022-12-22T00:10:40.674Z,93169.00
2022-12-22T00:12:32.365Z,93174.28
2022-12-22T00:14:22.453Z,93173.16
2022-12-22T00:16:12.522Z,93173.63
2022-12-22T00:18:02.741Z,93174.09
2022-12-22T00:19:52.825Z,93183.56
2022-12-22T00:21:43.080Z,93180.81
2022-12-22T00:23:33.157Z,93184.94
2022-12-22T00:25:23.339Z,93187.06
2022-12-22T00:27:13.693Z,93181.44
2022-12-22T00:29:03.766Z,93190.03
2022-12-22T00:30:54.228Z,93182.03
2022-12-22T00:32:45.436Z,93185.72
2022-12-22T00:34:37.120Z,93191.00
2022-12-22T00:36:28.269Z,93186.53
2022-12-22T00:38:18.667Z,93185.25
2022-12-22T00:40:09.120Z,93177.88
2022-12-22T00:41:59.340Z,93177.97
2022-12-22T00:43:49.510Z,93171.66
2022-12-22T00:45:39.512Z,93166.59
2022-12-22T00:47:32.712Z,93176.13
2022-12-22T00:49:22.957Z,93169.81
2022-12-22T00:51:13.111Z,93172.22
2022-12-22T00:53:03.184Z,93172.22
2022-12-22T00:54:53.310Z,93176.47
2022-12-22T00:56:43.510Z,93171.75
2022-12-22T00:58:34.244Z,93168.06
2022-12-22T01:00:25.358Z,93169.31
2022-12-22T01:02:15.945Z,93161.09
2022-12-22T01:04:06.218Z,93160.53
2022-12-22T01:05:56.589Z,93163.06
2022-12-22T01:07:46.719Z,93156.06
2022-12-22T01:09:37.065Z,93167.09
2022-12-22T01:11:27.476Z,93152.53
2022-12-22T01:13:17.783Z,93159.09
2022-12-22T01:15:07.954Z,93157.25
2022-12-22T01:16:57.811Z,93154.28
2022-12-22T01:18:47.854Z,93152.66
2022-12-22T01:20:38.129Z,93142.09
2022-12-22T01:22:29.352Z,93141.16
2022-12-22T01:24:19.845Z,93143.34
2022-12-22T01:26:09.824Z,93141.84
2022-12-22T01:27:59.748Z,93136.31
2022-12-22T01:29:49.914Z,93138.06
2022-12-22T01:31:44.645Z,93142.53
2022-12-22T01:33:34.704Z,93141.50
2022-12-22T01:35:25.648Z,93138.97
2022-12-22T01:37:15.866Z,93136.31
2022-12-22T01:39:05.869Z,93136.31
2022-12-22T01:40:56.233Z,93145.28
2022-12-22T01:42:46.446Z,93139.19
2022-12-22T01:44:37.182Z,93140.81
2022-12-22T01:46:45.862Z,93147.69
2022-12-22T01:48:39.932Z,93138.16
2022-12-22T01:50:30.678Z,93143.44
2022-12-22T01:52:21.049Z,93140.88
2022-12-22T01:54:11.070Z,93130.53
2022-12-22T01:56:01.329Z,93137.69
2022-12-22T01:57:51.599Z,93131.13
2022-12-22T01:59:41.913Z,93141.09
2022-12-22T02:01:32.224Z,93141.38
2022-12-22T02:03:22.803Z,93140.81
2022-12-22T02:05:13.363Z,93144.72
2022-12-22T02:07:03.672Z,93150.22
2022-12-22T02:08:54.419Z,93143.78
2022-12-22T02:10:47.139Z,93134.75
2022-12-22T02:13:15.737Z,93141.22
2022-12-22T02:15:09.015Z,93143.75
2022-12-22T02:17:03.336Z,93134.69
2022-12-22T02:18:56.139Z,93136.28
2022-12-22T02:20:57.651Z,93136.78
2022-12-22T02:23:07.689Z,93136.88
2022-12-22T02:24:59.480Z,93143.44
2022-12-22T02:26:53.438Z,93135.28
2022-12-22T02:28:43.894Z,93138.72
2022-12-22T02:30:34.055Z,93136.88
2022-12-22T02:32:25.073Z,93139.75
2022-12-22T02:34:15.207Z,93133.91
2022-12-22T02:36:05.099Z,93136.22
2022-12-22T02:37:58.169Z,93135.31
2022-12-22T02:39:48.241Z,93135.53
2022-12-22T02:41:38.342Z,93140.28
2022-12-22T02:43:34.812Z,93135.75
2022-12-22T02:45:31.213Z,93135.53
2022-12-22T02:47:24.677Z,93141.38
2022-12-22T02:49:16.278Z,93136.13
2022-12-22T02:51:09.360Z,93136.34
2022-12-22T02:52:59.839Z,93130.25
2022-12-22T02:54:49.683Z,93129.94
2022-12-22T02:56:39.723Z,93134.88
2022-12-22T02:58:30.511Z,93134.53
2022-12-22T03:00:20.630Z,93135.34
2022-12-22T03:02:10.768Z,93136.38
2022-12-22T03:04:00.802Z,93140.97
2022-12-22T03:05:51.033Z,93145.09
2022-12-22T03:07:41.052Z,93147.72
2022-12-22T03:09:31.084Z,93149.13
2022-12-22T03:11:21.381Z,93142.47
2022-12-22T03:13:12.035Z,93135.13
2022-12-22T03:15:02.478Z,93140.97
2022-12-22T03:16:52.870Z,93142.66
2022-12-22T03:18:42.795Z,93139.56
2022-12-22T03:20:33.024Z,93140.97
2022-12-22T03:22:23.367Z,93133.84
2022-12-22T03:24:13.598Z,93131.09
2022-12-22T03:25:52.317Z,93131.31
2022-12-22T03:27:23.943Z,93135.00
2022-12-22T03:28:57.700Z,93134.22
2022-12-22T03:30:29.277Z,93130.53
2022-12-22T03:32:00.901Z,93134.88
2022-12-22T03:33:32.581Z,93127.84
2022-12-22T03:35:04.469Z,93132.59
2022-12-22T03:36:36.075Z,93125.94
2022-12-22T03:38:07.652Z,93126.28
2022-12-22T03:39:39.399Z,93135.75
2022-12-22T03:41:30.886Z,93129.38
2022-12-22T03:43:21.077Z,93134.88
2022-12-22T03:45:11.421Z,93127.19
2022-12-22T03:46:43.074Z,93128.44
2022-12-22T03:48:14.647Z,93133.84
2022-12-22T03:49:46.256Z,93128.72
2022-12-22T03:51:17.943Z,93129.16
2022-12-22T03:52:49.585Z,93127.00
2022-12-22T03:54:24.394Z,93136.66
2022-12-22T03:55:56.074Z,93125.97
2022-12-22T03:57:27.637Z,93130.66
2022-12-22T03:58:59.279Z,93125.84
2022-12-22T04:00:30.836Z,93121.28
2022-12-22T04:02:02.701Z,93116.44
2022-12-22T04:03:34.571Z,93121.72
2022-12-22T04:05:06.268Z,93121.94
2022-12-22T04:06:37.969Z,93116.91
2022-12-22T04:08:09.499Z,93122.97
2022-12-22T04:10:01.016Z,93113.47
2022-12-22T04:11:51.155Z,93114.25
2022-12-22T04:13:22.729Z,93118.19
2022-12-22T04:14:54.419Z,93121.63
2022-12-22T04:16:26.095Z,93117.59
2022-12-22T04:17:57.977Z,93122.06
2022-12-22T04:19:29.904Z,93113.38
2022-12-22T04:21:01.488Z,93121.63
2022-12-22T04:22:33.098Z,93124.50
2022-12-22T04:24:05.213Z,93117.72
2022-12-22T04:25:36.875Z,93124.81
2022-12-22T04:27:08.510Z,93120.34
2022-12-22T04:28:40.145Z,93118.75
2022-12-22T04:30:12.038Z,93116.91
2022-12-22T04:31:43.662Z,93109.47
2022-12-22T04:33:15.313Z,93120.34
2022-12-22T04:34:46.838Z,93114.84
2022-12-22T04:36:18.677Z,93112.22
2022-12-22T04:37:50.335Z,93118.75
2022-12-22T04:39:22.425Z,93113.72
2022-12-22T04:40:54.840Z,93112.09
2022-12-22T04:42:27.053Z,93119.44
2022-12-22T04:43:58.836Z,93112.34
2022-12-22T04:45:30.380Z,93118.88
2022-12-22T04:47:01.997Z,93120.69
2022-12-22T04:48:33.564Z,93117.25
2022-12-22T04:50:05.390Z,93114.03
2022-12-22T04:51:36.964Z,93121.72
2022-12-22T04:53:09.147Z,93122.44
2022-12-22T04:54:40.763Z,93120.03
2022-12-22T04:56:12.485Z,93122.06
2022-12-22T04:57:44.476Z,93113.81
2022-12-22T04:59:16.019Z,93116.44
2022-12-22T05:00:47.592Z,93108.53
2022-12-22T05:02:19.569Z,93118.84
2022-12-22T05:03:51.476Z,93114.84
2022-12-22T05:05:23.101Z,93115.06
2022-12-22T05:06:54.968Z,93103.97
2022-12-22T05:08:26.475Z,93105.22
2022-12-22T05:09:58.007Z,93108.31
2022-12-22T05:11:29.671Z,93099.81
2022-12-22T05:13:01.399Z,93089.28
2022-12-22T05:14:33.037Z,93090.78
2022-12-22T05:16:11.588Z,93095.13
2022-12-22T05:17:43.236Z,93097.31
2022-12-22T05:19:14.912Z,93101.06
2022-12-22T05:20:46.665Z,93095.94
2022-12-22T05:22:18.343Z,93104.06
2022-12-22T05:23:50.254Z,93104.88
2022-12-22T05:25:21.796Z,93115.88
2022-12-22T05:26:53.740Z,93111.75
2022-12-22T05:28:25.370Z,93115.63
2022-12-22T05:29:56.961Z,93114.03
2022-12-22T05:31:28.649Z,93115.06
2022-12-22T05:33:00.462Z,93125.59
2022-12-22T05:34:32.091Z,93119.41
2022-12-22T05:36:03.837Z,93122.28
2022-12-22T05:37:35.584Z,93131.09
2022-12-22T05:39:07.104Z,93136.81
2022-12-22T05:40:38.807Z,93130.16
2022-12-22T05:42:11.295Z,93139.44
2022-12-22T05:43:42.996Z,93139.81
2022-12-22T05:45:15.641Z,93142.66
2022-12-22T05:46:47.220Z,93148.16
2022-12-22T05:48:24.257Z,93131.53
2022-12-22T05:49:59.076Z,93132.34
2022-12-22T05:51:30.644Z,93133.75
2022-12-22T05:53:02.279Z,93132.47
2022-12-22T05:54:33.947Z,93140.94
2022-12-22T05:56:05.720Z,93140.13
2022-12-22T05:57:37.627Z,93133.25
2022-12-22T05:59:10.621Z,93139.56
2022-12-22T06:00:42.261Z,93137.50
2022-12-22T06:02:14.043Z,93135.44
2022-12-22T06:03:45.895Z,93128.56
2022-12-22T06:05:17.659Z,93122.72
2022-12-22T06:06:49.262Z,93121.91
2022-12-22T06:08:20.912Z,93128.47
2022-12-22T06:09:52.525Z,93124.66
2022-12-22T06:11:24.118Z,93122.84
2022-12-22T06:12:55.724Z,93122.84
2022-12-22T06:14:27.329Z,93124.44
2022-12-22T06:15:59.023Z,93126.06
2022-12-22T06:17:30.678Z,93124.56
2022-12-22T06:19:02.261Z,93133.41
2022-12-22T06:20:33.898Z,93130.66
2022-12-22T06:22:05.529Z,93125.72
2022-12-22T06:23:37.195Z,93120.59
2022-12-22T06:25:13.602Z,93116.91
2022-12-22T06:26:49.008Z,93115.06
2022-12-22T06:28:20.559Z,93120.34
2022-12-22T06:29:52.091Z,93123.31
2022-12-22T06:31:24.063Z,93126.75
2022-12-22T06:32:55.646Z,93126.72
2022-12-22T06:34:27.354Z,93131.75
2022-12-22T06:35:59.733Z,93123.56
2022-12-22T06:37:31.570Z,93124.66
2022-12-22T06:39:03.250Z,93125.19
2022-12-22T06:40:34.799Z,93121.34
2022-12-22T06:42:25.142Z,93127.03
2022-12-22T06:43:56.791Z,93126.91
2022-12-22T06:45:28.675Z,93131.34
2022-12-22T06:47:00.280Z,93129.44
2022-12-22T06:48:31.888Z,93120.41
2022-12-22T06:50:03.649Z,93123.50
2022-12-22T06:51:35.300Z,93130.09
2022-12-22T06:53:06.915Z,93123.75
2022-12-22T06:54:38.526Z,93130.84
2022-12-22T06:56:10.673Z,93129.72
2022-12-22T06:57:42.644Z,93129.63
2022-12-22T06:59:14.733Z,93132.16
2022-12-22T07:00:48.835Z,93131.44
2022-12-22T07:02:20.588Z,93138.13
2022-12-22T07:03:52.534Z,93139.75
2022-12-22T07:05:24.180Z,93140.78
2022-12-22T07:06:56.026Z,93138.88
2022-12-22T07:08:27.650Z,93141.50
2022-12-22T07:09:59.187Z,93146.81
2022-12-22T07:11:30.817Z,93140.72
2022-12-22T07:13:19.560Z,93145.53
2022-12-22T07:14:51.323Z,93146.56
2022-12-22T07:16:22.957Z,93150.03
2022-12-22T07:17:54.568Z,93146.00
2022-12-22T07:19:26.151Z,93145.03
2022-12-22T07:20:57.762Z,93136.97
2022-12-22T07:22:30.816Z,93136.41
2022-12-22T07:24:02.660Z,93132.88
2022-12-22T07:25:34.243Z,93131.16
2022-12-22T07:27:05.846Z,93129.41
2022-12-22T07:28:38.002Z,93126.22
2022-12-22T07:30:10.015Z,93129.31
2022-12-22T07:31:41.736Z,93127.63
2022-12-22T07:33:13.281Z,93129.19
2022-12-22T07:34:45.194Z,93127.34
2022-12-22T07:36:17.887Z,93122.88
2022-12-22T07:37:49.606Z,93131.69
2022-12-22T07:39:21.206Z,93124.97
2022-12-22T07:41:01.280Z,93130.84
2022-12-22T07:42:45.656Z,93127.63
2022-12-22T07:44:17.238Z,93122.63
2022-12-22T07:45:49.005Z,93130.13
2022-12-22T07:47:20.822Z,93130.44
2022-12-22T07:49:11.335Z,93140.84
2022-12-22T07:50:44.566Z,93141.47
2022-12-22T07:52:16.235Z,93137.53
2022-12-22T07:53:47.910Z,93133.06
2022-12-22T07:55:19.818Z,93128.38
2022-12-22T07:56:51.472Z,93133.22
2022-12-22T07:58:23.085Z,93139.09
2022-12-22T07:59:54.939Z,93143.41
2022-12-22T08:01:26.668Z,93137.38
2022-12-22T08:02:58.525Z,93133.16
2022-12-22T08:04:30.588Z,93139.31
2022-12-22T08:06:04.446Z,93133.25
2022-12-22T08:07:36.181Z,93136.78
2022-12-22T08:09:08.023Z,93130.75
2022-12-22T08:10:39.724Z,93129.97
2022-12-22T08:12:11.437Z,93128.97
2022-12-22T08:13:44.032Z,93130.63
2022-12-22T08:15:15.548Z,93124.84
2022-12-22T08:16:47.315Z,93123.03
2022-12-22T08:18:19.189Z,93126.19
2022-12-22T08:19:50.913Z,93125.41
2022-12-22T08:21:22.914Z,93125.94
2022-12-22T08:22:54.684Z,93130.50
2022-12-22T08:24:26.569Z,93127.03
2022-12-22T08:26:16.604Z,93128.91
2022-12-22T08:27:48.948Z,93132.13
2022-12-22T08:29:21.896Z,93132.69
2022-12-22T08:30:53.726Z,93129.78
2022-12-22T08:32:25.498Z,93127.66
2022-12-22T08:33:57.499Z,93130.31
2022-12-22T08:35:29.160Z,93134.06
2022-12-22T08:37:01.060Z,93133.25
2022-12-22T08:38:32.989Z,93126.38
2022-12-22T08:40:05.326Z,93131.72
2022-12-22T08:41:52.670Z,93128.25
2022-12-22T08:43:25.145Z,93125.31
2022-12-22T08:44:56.788Z,93118.41
2022-12-22T08:46:29.847Z,93122.94
2022-12-22T08:48:01.599Z,93123.22
2022-12-22T08:49:33.476Z,93121.09
2022-12-22T08:51:05.255Z,93117.09
2022-12-22T08:52:37.377Z,93114.44
2022-12-22T08:54:09.054Z,93107.81
2022-12-22T08:55:40.930Z,93113.69
2022-12-22T08:57:12.627Z,93106.50
2022-12-22T08:58:44.333Z,93104.63
2022-12-22T09:00:16.180Z,93107.03
2022-12-22T09:01:51.432Z,93100.91
2022-12-22T09:03:23.179Z,93104.63
2022-12-22T09:04:54.709Z,93099.84
2022-12-22T09:06:27.744Z,93102.47
2022-12-22T09:08:02.894Z,93093.91
2022-12-22T09:09:34.729Z,93092.81
2022-12-22T09:11:06.352Z,93089.56
2022-12-22T09:12:38.149Z,93090.56
2022-12-22T09:14:10.149Z,93081.75
2022-12-22T09:15:41.799Z,93078.44
2022-12-22T09:17:13.496Z,93088.00
2022-12-22T09:18:45.682Z,93081.31
2022-12-22T09:20:17.410Z,93076.56
2022-12-22T09:21:49.130Z,93077.91
2022-12-22T09:23:21.217Z,93078.13
2022-12-22T09:24:53.168Z,93075.72
2022-12-22T09:26:25.352Z,93077.03
2022-12-22T09:27:56.901Z,93069.56
2022-12-22T09:29:28.583Z,93062.09
2022-12-22T09:31:00.499Z,93067.22
2022-12-22T09:32:34.673Z,93065.63
2022-12-22T09:34:08.598Z,93068.50
2022-12-22T09:35:42.258Z,93066.56
2022-12-22T09:37:16.800Z,93058.22
2022-12-22T09:38:48.522Z,93056.31
2022-12-22T09:40:22.287Z,93054.91
2022-12-22T09:41:55.868Z,93047.69
2022-12-22T09:43:29.000Z,93046.81
2022-12-22T09:45:00.634Z,93040.88
2022-12-22T09:46:33.377Z,93049.03
2022-12-22T09:48:05.065Z,93055.69
2022-12-22T09:49:36.903Z,93048.47
2022-12-22T09:51:10.938Z,93055.16
2022-12-22T09:52:48.717Z,93047.91
2022-12-22T09:54:20.301Z,93050.88
2022-12-22T09:55:51.982Z,93048.13
2022-12-22T09:57:25.092Z,93043.84
2022-12-22T09:58:57.197Z,93043.28
2022-12-22T10:00:30.002Z,93047.75
2022-12-22T10:02:11.742Z,93042.66
2022-12-22T10:04:04.241Z,93041.78
2022-12-22T10:05:54.414Z,93037.75
2022-12-22T10:07:26.195Z,93037.16
2022-12-22T10:08:57.829Z,93034.22
2022-12-22T10:10:30.339Z,93030.03
2022-12-22T10:12:03.345Z,93023.59
2022-12-22T10:13:35.046Z,93027.50
2022-12-22T10:15:07.618Z,93020.34
2022-12-22T10:16:39.419Z,93015.44
2022-12-22T10:18:11.331Z,93009.53
2022-12-22T10:19:43.463Z,92998.94
2022-12-22T10:21:15.177Z,92999.84
2022-12-22T10:22:47.299Z,92998.34
2022-12-22T10:24:28.997Z,92999.22
2022-12-22T10:27:59.009Z,92999.94
2022-12-22T10:29:30.586Z,92997.50
2022-12-22T10:31:17.355Z,92998.16
2022-12-22T10:33:07.861Z,93000.63
2022-12-22T10:34:52.778Z,92996.69
2022-12-22T10:36:28.159Z,93001.66
2022-12-22T10:37:59.812Z,93000.19
2022-12-22T10:39:32.557Z,92999.84
2022-12-22T10:41:07.097Z,92997.88
2022-12-22T10:42:38.648Z,92993.22
2022-12-22T10:44:11.592Z,92989.06
2022-12-22T10:45:43.367Z,92986.50
2022-12-22T10:47:18.011Z,92981.94
2022-12-22T10:48:49.861Z,92981.63
2022-12-22T10:50:21.650Z,92987.41
2022-12-22T10:52:13.579Z,92985.06
2022-12-22T10:53:49.319Z,92989.50
2022-12-22T10:55:22.463Z,92986.38
2022-12-22T10:57:04.908Z,92983.13
2022-12-22T10:58:49.607Z,92984.72
2022-12-22T11:00:28.326Z,92981.16
2022-12-22T11:02:38.568Z,92979.16
2022-12-22T11:04:23.829Z,92979.97
2022-12-22T11:05:55.416Z,92971.72
2022-12-22T11:07:27.159Z,92978.25
2022-12-22T11:09:31.308Z,92972.72
2022-12-22T11:10:57.809Z,92976.59
2022-12-22T11:12:29.493Z,92970.94
2022-12-22T11:14:19.484Z,92966.34
2022-12-22T11:16:00.259Z,92971.72
2022-12-22T11:17:50.567Z,92971.00
2022-12-22T11:19:25.184Z,92966.22
2022-12-22T11:21:02.125Z,92968.19
2022-12-22T11:22:36.497Z,92962.00
2022-12-22T11:24:08.280Z,92953.63
2022-12-22T11:25:40.008Z,92959.28
2022-12-22T11:27:24.077Z,92962.91
2022-12-22T11:29:04.948Z,92954.97
2022-12-22T11:30:36.539Z,92954.41
2022-12-22T11:32:27.218Z,92947.41
2022-12-22T11:34:20.985Z,92954.44
2022-12-22T11:35:53.280Z,92939.75
2022-12-22T11:37:25.013Z,92940.41
2022-12-22T11:39:03.918Z,92944.72
2022-12-22T11:40:42.306Z,92936.22
2022-12-22T11:42:32.669Z,92931.06
2022-12-22T11:44:10.540Z,92934.41
2022-12-22T11:46:00.306Z,92931.13
2022-12-22T11:47:50.775Z,92929.72
2022-12-22T11:49:25.484Z,92925.59
2022-12-22T11:51:08.014Z,92918.44
2022-12-22T11:52:45.711Z,92929.41
2022-12-22T11:54:39.954Z,92927.50
2022-12-22T11:56:21.363Z,92925.94
2022-12-22T11:57:53.012Z,92918.94
2022-12-22T11:59:42.814Z,92921.47
2022-12-22T12:01:26.157Z,92919.25
2022-12-22T12:03:04.018Z,92922.25
2022-12-22T12:04:41.920Z,92923.34
2022-12-22T12:06:33.921Z,92914.50
2022-12-22T12:08:17.494Z,92921.97
2022-12-22T12:09:48.987Z,92921.00
2022-12-22T12:11:26.274Z,92920.84
2022-12-22T12:12:57.912Z,92914.00
2022-12-22T12:14:32.117Z,92913.06
2022-12-22T12:16:10.035Z,92914.00
2022-12-22T12:17:50.740Z,92905.31
2022-12-22T12:19:32.618Z,92908.94
2022-12-22T12:21:22.774Z,92905.63
2022-12-22T12:23:12.982Z,92912.91
2022-12-22T12:24:51.132Z,92905.75
2022-12-22T12:26:24.075Z,92907.47
2022-12-22T12:28:00.104Z,92910.63
2022-12-22T12:29:38.253Z,92907.78
2022-12-22T12:31:11.340Z,92907.25
2022-12-22T12:32:43.229Z,92906.13
2022-12-22T12:34:15.223Z,92913.41
2022-12-22T12:35:49.408Z,92904.34
2022-12-22T12:37:26.633Z,92902.25
2022-12-22T12:39:10.928Z,92907.16
2022-12-22T12:40:42.422Z,92896.16
2022-12-22T12:42:22.221Z,92899.13
2022-12-22T12:43:55.220Z,92893.09
2022-12-22T12:45:35.916Z,92896.25
2022-12-22T12:47:26.629Z,92894.47
2022-12-22T12:49:01.042Z,92892.53
2022-12-22T12:50:33.730Z,92894.78
2022-12-22T12:52:08.888Z,92895.47
2022-12-22T12:53:40.394Z,92890.41
2022-12-22T12:55:24.310Z,92894.47
2022-12-22T12:57:08.313Z,92886.84
2022-12-22T12:58:39.972Z,92898.13
2022-12-22T13:00:30.339Z,92897.00
2022-12-22T13:02:02.230Z,92893.84
2022-12-22T13:04:02.377Z,92897.66
2022-12-22T13:05:48.967Z,92896.13
2022-12-22T13:07:40.654Z,92900.16
2022-12-22T13:11:09.404Z,92886.31
2022-12-22T13:12:48.533Z,92891.56
2022-12-22T13:14:38.602Z,92885.38
2022-12-22T13:16:16.541Z,92882.22
2022-12-22T13:17:48.715Z,92881.25
2022-12-22T13:19:23.540Z,92887.25
2022-12-22T13:21:18.569Z,92880.31
2022-12-22T13:22:52.035Z,92878.88
2022-12-22T13:24:29.319Z,92880.19
2022-12-22T13:26:02.029Z,92880.03
2022-12-22T13:27:33.733Z,92878.44
2022-12-22T13:29:09.232Z,92882.13
2022-12-22T13:30:41.125Z,92881.47
2022-12-22T13:32:16.814Z,92885.13
2022-12-22T13:33:49.391Z,92879.16
2022-12-22T13:35:43.066Z,92880.09
2022-12-22T13:37:13.082Z,92882.78
2022-12-22T13:38:44.766Z,92873.41
2022-12-22T13:40:17.619Z,92875.19
2022-12-22T13:41:49.497Z,92877.06
2022-12-22T13:43:21.211Z,92868.81
2022-12-22T13:44:52.776Z,92880.72
2022-12-22T13:46:24.750Z,92872.00
2022-12-22T13:47:57.937Z,92874.03
2022-12-22T13:49:59.201Z,92871.84
2022-12-22T13:51:24.958Z,92869.13
2022-12-22T13:52:56.679Z,92876.91
2022-12-22T13:54:35.752Z,92868.81
2022-12-22T13:56:08.530Z,92871.16
2022-12-22T13:57:40.553Z,92871.84
2022-12-22T13:59:30.365Z,92869.16
2022-12-22T14:01:02.906Z,92872.81
2022-12-22T14:02:34.737Z,92867.91
2022-12-22T14:04:08.000Z,92871.03
2022-12-22T14:05:39.829Z,92867.91
2022-12-22T14:07:12.211Z,92868.69
2022-12-22T14:08:43.929Z,92869.47
2022-12-22T14:10:15.617Z,92866.59
2022-12-22T14:12:02.491Z,92864.41
2022-12-22T14:13:34.698Z,92867.09
2022-12-22T14:15:07.930Z,92860.09
2022-12-22T14:16:43.228Z,92858.69
2022-12-22T14:18:18.101Z,92872.16
2022-12-22T14:19:59.105Z,92864.41
2022-12-22T14:21:30.832Z,92861.69
2022-12-22T14:23:12.645Z,92856.63
2022-12-22T14:24:54.910Z,92855.03
2022-12-22T14:26:26.978Z,92858.22
2022-12-22T14:27:58.696Z,92856.16
2022-12-22T14:29:30.192Z,92858.19
2022-12-22T14:31:02.735Z,92859.19
2022-12-22T14:32:38.426Z,92856.16
2022-12-22T14:34:23.475Z,92857.41
2022-12-22T14:36:13.763Z,92852.19
2022-12-22T14:37:45.400Z,92853.75
2022-12-22T14:39:24.665Z,92862.44
2022-12-22T14:40:57.661Z,92853.09
2022-12-22T14:42:29.712Z,92858.16
2022-12-22T14:44:01.383Z,92858.75
2022-12-22T14:45:33.143Z,92854.47
2022-12-22T14:47:20.290Z,92853.66
2022-12-22T14:48:51.950Z,92856.16
2022-12-22T14:50:24.247Z,92866.69
2022-12-22T14:52:00.952Z,92860.31
2022-12-22T14:53:56.063Z,92864.38
2022-12-22T14:55:28.680Z,92864.72
2022-12-22T14:57:10.105Z,92864.50
2022-12-22T14:58:47.372Z,92872.75
2022-12-22T15:00:24.619Z,92865.66
2022-12-22T15:02:00.583Z,92866.63
2022-12-22T15:03:36.506Z,92864.78
2022-12-22T15:05:14.072Z,92866.13
2022-12-22T15:06:48.591Z,92864.75
2022-12-22T15:08:38.998Z,92861.56
2022-12-22T15:10:15.966Z,92859.69
2022-12-22T15:11:52.911Z,92862.28
2022-12-22T15:13:24.564Z,92866.63
2022-12-22T15:14:56.153Z,92862.53
2022-12-22T15:16:28.017Z,92870.63
2022-12-22T15:18:00.112Z,92872.53
2022-12-22T15:19:34.739Z,92869.09
2022-12-22T15:21:07.824Z,92870.19
2022-12-22T15:22:39.505Z,92877.59
2022-12-22T15:24:17.821Z,92874.91
2022-12-22T15:25:49.465Z,92877.00
2022-12-22T15:27:21.168Z,92875.31
2022-12-22T15:28:52.951Z,92877.88
2022-12-22T15:30:29.707Z,92883.44
2022-12-22T15:32:02.278Z,92878.84
2022-12-22T15:33:34.239Z,92876.63
2022-12-22T15:35:15.219Z,92874.28
2022-12-22T15:36:46.926Z,92882.94
2022-12-22T15:38:19.578Z,92883.50
2022-12-22T15:39:51.111Z,92880.72
2022-12-22T15:41:22.953Z,92882.66
2022-12-22T15:42:54.578Z,92891.28
2022-12-22T15:44:26.120Z,92894.56
2022-12-22T15:45:57.980Z,92886.00
2022-12-22T15:47:29.707Z,92888.75
2022-12-22T15:49:01.796Z,92897.72
2022-12-22T15:50:38.798Z,92894.41
2022-12-22T15:52:10.917Z,92898.59
2022-12-22T15:53:42.480Z,92895.25
2022-12-22T15:55:14.639Z,92900.75
2022-12-22T15:56:46.552Z,92896.34
2022-12-22T15:58:19.638Z,92891.78
2022-12-22T15:59:51.489Z,92891.66
2022-12-22T16:01:24.511Z,92891.22
2022-12-22T16:02:56.222Z,92885.91
2022-12-22T16:04:28.625Z,92895.00
2022-12-22T16:06:00.999Z,92885.91
2022-12-22T16:07:32.832Z,92887.47
2022-12-22T16:09:06.508Z,92890.13
2022-12-22T16:10:38.235Z,92897.06
2022-12-22T16:12:11.823Z,92901.09
2022-12-22T16:13:43.475Z,92903.78
2022-12-22T16:15:15.204Z,92898.94
2022-12-22T16:16:48.522Z,92897.56
2022-12-22T16:18:20.413Z,92907.97
2022-12-22T16:19:52.169Z,92905.56
2022-12-22T16:21:25.272Z,92903.50
2022-12-22T16:22:56.999Z,92909.16
2022-12-22T16:24:30.108Z,92908.16
2022-12-22T16:26:02.574Z,92904.72
2022-12-22T16:27:35.116Z,92911.19
2022-12-22T16:29:08.474Z,92917.38
2022-12-22T16:30:40.135Z,92915.06
2022-12-22T16:32:21.694Z,92914.56
2022-12-22T16:33:53.249Z,92911.63
2022-12-22T16:35:25.797Z,92911.63
2022-12-22T16:36:57.410Z,92908.66
2022-12-22T16:38:29.644Z,92909.56
2022-12-22T16:40:02.034Z,92911.47
2022-12-22T16:41:33.781Z,92910.22
2022-12-22T16:45:18.695Z,92903.16
2022-12-22T16:46:50.328Z,92908.31
2022-12-22T16:48:22.803Z,92899.78
2022-12-22T16:49:54.616Z,92910.47
2022-12-22T16:51:37.426Z,92901.13
2022-12-22T16:53:09.896Z,92900.13
2022-12-22T16:54:41.802Z,92907.63
2022-12-22T16:56:18.209Z,92910.34
2022-12-22T16:57:50.324Z,92906.09
2022-12-22T16:59:22.856Z,92903.94
2022-12-22T17:00:54.464Z,92909.81
2022-12-22T17:02:27.479Z,92904.47
2022-12-22T17:04:02.061Z,92904.16
2022-12-22T17:05:44.075Z,92909.22
2022-12-22T17:07:16.558Z,92908.97
2022-12-22T17:08:48.244Z,92896.41
2022-12-22T17:10:20.122Z,92895.34
2022-12-22T17:11:51.820Z,92898.84
2022-12-22T17:13:23.456Z,92898.09
2022-12-22T17:14:55.155Z,92902.09
2022-12-22T17:16:26.807Z,92901.84
2022-12-22T17:17:58.551Z,92898.97
2022-12-22T17:19:30.199Z,92903.75
2022-12-22T17:21:01.947Z,92904.31
2022-12-22T17:22:33.712Z,92906.16
2022-12-22T17:24:06.056Z,92900.31
2022-12-22T17:25:37.712Z,92903.22
2022-12-22T17:27:10.432Z,92902.94
2022-12-22T17:28:42.477Z,92902.38
2022-12-22T17:30:18.371Z,92908.22
2022-12-22T17:31:51.174Z,92905.84
2022-12-22T17:33:22.940Z,92907.19
2022-12-22T17:34:54.760Z,92904.50
2022-12-22T17:36:28.800Z,92897.09
2022-12-22T17:38:00.617Z,92905.09
2022-12-22T17:39:34.196Z,92901.44
2022-12-22T17:41:05.969Z,92905.75
2022-12-22T17:42:37.623Z,92911.13
2022-12-22T17:44:20.105Z,92912.75
2022-12-22T17:45:52.535Z,92909.81
2022-12-22T17:47:32.278Z,92913.28
2022-12-22T17:49:06.457Z,92911.41
2022-12-22T17:50:38.476Z,92909.78
2022-12-22T17:52:30.735Z,92911.09
2022-12-22T17:54:02.425Z,92902.00
2022-12-22T17:56:07.039Z,92908.16
2022-12-22T17:57:27.282Z,92896.16
2022-12-22T17:58:59.377Z,92909.22
2022-12-22T18:00:30.988Z,92902.56
2022-12-22T18:02:02.817Z,92895.63
2022-12-22T18:03:35.313Z,92908.16
2022-12-22T18:05:11.574Z,92904.44
2022-12-22T18:06:43.229Z,92906.06
2022-12-22T18:08:16.575Z,92911.16
2022-12-22T18:09:48.269Z,92912.47
2022-12-22T18:11:20.123Z,92911.16
2022-12-22T18:12:52.297Z,92910.38
2022-12-22T18:14:24.021Z,92910.94
2022-12-22T18:15:56.460Z,92914.41
2022-12-22T18:17:35.090Z,92913.63
2022-12-22T18:19:07.481Z,92910.75
2022-12-22T18:20:39.138Z,92915.81
2022-12-22T18:22:14.874Z,92912.88
2022-12-22T18:23:50.274Z,92912.09
2022-12-22T18:25:23.285Z,92912.63
2022-12-22T18:26:54.890Z,92915.56
2022-12-22T18:28:26.594Z,92914.50
2022-12-22T18:29:58.624Z,92925.13
2022-12-22T18:31:30.586Z,92915.81
2022-12-22T18:33:02.221Z,92918.75
2022-12-22T18:34:33.770Z,92915.59
2022-12-22T18:36:05.773Z,92924.09
2022-12-22T18:37:37.454Z,92924.63
2022-12-22T18:39:16.765Z,92932.09
2022-12-22T18:40:48.767Z,92928.91
2022-12-22T18:42:21.487Z,92929.97
2022-12-22T18:43:53.259Z,92928.91
2022-12-22T18:45:26.939Z,92925.69
2022-12-22T18:46:58.513Z,92933.16
2022-12-22T18:48:30.326Z,92930.50
2022-12-22T18:50:03.895Z,92934.22
2022-12-22T18:51:36.235Z,92929.44
2022-12-22T18:53:24.961Z,92936.09
2022-12-22T18:54:56.636Z,92940.06
2022-12-22T18:56:28.573Z,92935.31
2022-12-22T18:58:00.230Z,92933.72
2022-12-22T18:59:33.115Z,92939.03
2022-12-22T19:01:05.073Z,92939.03
2022-12-22T19:02:36.768Z,92940.63
2022-12-22T19:04:08.536Z,92939.81
2022-12-22T19:05:40.984Z,92933.72
2022-12-22T19:07:15.879Z,92930.53
2022-12-22T19:08:48.409Z,92932.94